createdAt,value
2019-02-05T00:02:08.340Z,93.40
2019-02-05T00:04:46.465Z,93.30
2019-02-05T00:07:15.873Z,93.30
2019-02-05T00:09:50.850Z,93.20
2019-02-05T00:12:24.323Z,93.60
2019-02-05T00:15:09.256Z,93.90
2019-02-05T00:17:49.010Z,94.20
2019-02-05T00:20:27.067Z,94.20
2019-02-05T00:23:10.416Z,94.10
2019-02-05T00:25:41.660Z,93.80
2019-02-05T00:28:16.354Z,93.80
2019-02-05T00:30:46.128Z,93.70
2019-02-05T00:34:18.590Z,93.70
2019-02-05T00:36:54.385Z,93.80
2019-02-05T00:39:34.939Z,93.90
2019-02-05T00:42:08.043Z,93.90
2019-02-05T00:44:55.488Z,93.90
2019-02-05T00:47:33.617Z,93.80
2019-02-05T00:50:27.646Z,93.90
2019-02-05T00:56:19.597Z,94.00
2019-02-05T00:59:13.439Z,94.10
2019-02-05T01:01:50.510Z,94.20
2019-02-05T01:04:32.042Z,94.20
2019-02-05T01:07:10.834Z,94.20
2019-02-05T01:09:45.467Z,94.10
2019-02-05T01:12:25.457Z,94.20
2019-02-05T01:15:09.086Z,94.30
2019-02-05T01:17:57.754Z,94.40
2019-02-05T01:20:49.202Z,94.40
2019-02-05T01:23:52.526Z,94.10
2019-02-05T01:26:40.610Z,93.90
2019-02-05T01:29:41.430Z,94.00
2019-02-05T01:32:25.414Z,94.10
2019-02-05T01:35:31.800Z,94.20
2019-02-05T01:41:59.990Z,94.30
2019-02-05T01:44:58.851Z,94.40
2019-02-05T01:48:08.750Z,94.40
2019-02-05T01:56:49.959Z,94.10
2019-02-05T01:59:44.587Z,93.90
2019-02-05T02:02:13.977Z,93.90
2019-02-05T02:04:55.550Z,94.00
2019-02-05T02:07:35.632Z,94.20
2019-02-05T02:10:09.700Z,94.10
2019-02-05T02:12:53.932Z,94.10
2019-02-05T02:15:29.147Z,93.90
2019-02-05T02:18:01.322Z,94.10
2019-02-05T02:20:35.000Z,94.30
2019-02-05T02:23:24.715Z,94.20
2019-02-05T02:25:56.764Z,94.30
2019-02-05T02:28:32.164Z,94.20
2019-02-05T02:34:20.870Z,94.10
2019-02-05T02:37:03.684Z,93.90
2019-02-05T02:39:42.791Z,93.70
2019-02-05T02:42:35.002Z,93.70
2019-02-05T02:45:35.992Z,93.50
2019-02-05T02:48:15.668Z,93.60
2019-02-05T02:51:06.618Z,93.80
2019-02-05T02:54:08.735Z,94.00
2019-02-05T03:18:25.329Z,94.20
2019-02-05T03:21:30.235Z,94.30
2019-02-05T03:24:49.707Z,94.40
2019-02-05T03:31:51.226Z,94.30
2019-02-05T04:07:13.549Z,94.00
2019-02-05T04:14:42.179Z,94.30
2019-02-05T04:18:27.091Z,94.10
2019-02-05T04:21:47.348Z,94.10
2019-02-05T04:25:09.640Z,94.20
2019-02-05T04:28:04.236Z,94.50
2019-02-05T04:31:32.353Z,94.60
2019-02-05T04:34:57.669Z,94.70
2019-02-05T04:38:35.270Z,94.70
2019-02-05T04:45:37.223Z,94.70
2019-02-05T04:52:53.961Z,94.30
2019-02-05T04:59:58.752Z,94.50
2019-02-05T05:14:00.420Z,94.00
2019-02-05T05:23:29.025Z,93.80
2019-02-05T05:26:24.900Z,93.80
2019-02-05T05:31:59.112Z,93.60
2019-02-05T05:34:32.616Z,93.50
2019-02-05T05:37:01.690Z,93.50
2019-02-05T05:39:34.605Z,93.40
2019-02-05T05:42:07.658Z,93.40
2019-02-05T05:44:37.042Z,93.60
2019-02-05T05:47:11.945Z,93.50
2019-02-05T05:49:51.891Z,93.50
2019-02-05T05:52:30.728Z,93.50
2019-02-05T05:55:16.574Z,93.50
2019-02-05T05:57:45.226Z,93.60
2019-02-05T06:00:24.639Z,93.60
2019-02-05T06:02:48.973Z,93.50
2019-02-05T06:05:18.660Z,93.50
2019-02-05T06:07:46.964Z,93.30
2019-02-05T06:10:16.388Z,93.20
2019-02-05T06:12:44.503Z,93.40
2019-02-05T06:15:13.773Z,93.60
2019-02-05T06:17:42.335Z,93.60
2019-02-05T06:20:14.170Z,93.60
2019-02-05T06:22:41.866Z,93.60
2019-02-05T06:25:22.417Z,93.60
2019-02-05T06:27:50.491Z,93.70
2019-02-05T06:30:19.495Z,93.50
2019-02-05T06:32:47.072Z,93.50
2019-02-05T06:35:14.593Z,93.70
2019-02-05T06:37:42.149Z,93.70
2019-02-05T06:40:10.764Z,93.80
2019-02-05T06:42:38.348Z,93.90
2019-02-05T06:45:07.571Z,93.60
2019-02-05T06:47:35.182Z,93.50
2019-02-05T06:50:03.706Z,93.40
2019-02-05T06:52:31.390Z,93.30
2019-02-05T06:54:59.141Z,93.60
2019-02-05T06:57:29.133Z,93.70
2019-02-05T06:59:56.852Z,93.60
2019-02-05T07:02:24.344Z,93.60
2019-02-05T07:04:51.924Z,93.60
2019-02-05T07:07:19.468Z,93.60
2019-02-05T07:09:46.992Z,93.60
2019-02-05T07:12:14.499Z,93.60
2019-02-05T07:14:42.277Z,93.70
2019-02-05T07:17:09.990Z,94.20
2019-02-05T07:19:37.616Z,94.80
2019-02-05T07:22:05.329Z,94.20
2019-02-05T07:24:33.073Z,93.80
2019-02-05T07:27:01.091Z,93.50
2019-02-05T07:29:28.673Z,93.60
2019-02-05T07:31:56.724Z,93.60
2019-02-05T07:34:24.741Z,93.60
2019-02-05T07:36:54.601Z,94.00
2019-02-05T07:39:22.692Z,93.90
2019-02-05T07:41:53.634Z,93.80
2019-02-05T07:44:21.623Z,93.90
2019-02-05T07:46:49.699Z,93.90
2019-02-05T07:49:17.377Z,93.80
2019-02-05T07:51:46.031Z,93.70
2019-02-05T07:54:16.646Z,93.80
2019-02-05T07:56:44.119Z,93.90
2019-02-05T07:59:12.108Z,94.00
2019-02-05T08:01:39.992Z,94.10
2019-02-05T08:04:07.540Z,94.10
2019-02-05T08:06:35.108Z,94.30
2019-02-05T08:09:06.558Z,94.10
2019-02-05T08:11:34.395Z,94.30
2019-02-05T08:14:02.042Z,94.50
2019-02-05T08:16:29.579Z,94.80
2019-02-05T08:18:57.171Z,94.60
2019-02-05T08:21:24.656Z,94.60
2019-02-05T08:23:52.580Z,94.30
2019-02-05T08:26:20.120Z,94.20
2019-02-05T08:28:47.651Z,93.90
2019-02-05T08:31:15.279Z,93.50
2019-02-05T08:33:42.835Z,93.30
2019-02-05T08:36:10.315Z,92.50
2019-02-05T08:38:37.759Z,92.00
2019-02-05T08:41:05.544Z,91.00
2019-02-05T08:43:32.996Z,90.90
2019-02-05T08:46:00.504Z,90.90
2019-02-05T08:48:28.161Z,92.10
2019-02-05T08:50:55.804Z,91.60
2019-02-05T08:53:23.452Z,91.30
2019-02-05T08:55:51.129Z,91.40
2019-02-05T08:58:30.321Z,90.80
2019-02-05T09:00:49.449Z,91.10
2019-02-05T09:03:17.008Z,92.90
2019-02-05T09:05:47.028Z,90.30
2019-02-05T09:08:14.831Z,90.00
2019-02-05T09:10:42.808Z,89.10
2019-02-05T09:13:11.116Z,88.20
2019-02-05T09:15:39.018Z,86.30
2019-02-05T09:18:07.944Z,86.10
2019-02-05T09:20:35.854Z,86.20
2019-02-05T09:23:10.000Z,85.80
2019-02-05T09:25:37.957Z,85.40
2019-02-05T09:28:05.525Z,85.50
2019-02-05T09:30:33.722Z,86.10
2019-02-05T09:33:03.572Z,86.00
2019-02-05T09:35:31.235Z,85.20
2019-02-05T09:38:00.421Z,85.00
2019-02-05T09:40:29.953Z,83.50
2019-02-05T09:42:57.737Z,82.60
2019-02-05T09:45:26.684Z,82.30
2019-02-05T09:47:54.500Z,82.10
2019-02-05T09:50:22.263Z,81.30
2019-02-05T09:52:49.715Z,80.80
2019-02-05T09:55:17.521Z,81.30
2019-02-05T09:57:44.995Z,81.30
2019-02-05T10:00:18.458Z,80.00
2019-02-05T10:02:46.090Z,80.40
2019-02-05T10:05:16.612Z,80.40
2019-02-05T10:07:44.191Z,80.80
2019-02-05T10:10:12.892Z,80.90
2019-02-05T10:12:40.427Z,82.30
2019-02-05T10:15:11.685Z,82.30
2019-02-05T10:17:39.212Z,81.20
2019-02-05T10:20:08.329Z,81.00
2019-02-05T10:22:37.615Z,79.30
2019-02-05T10:28:34.031Z,80.70
2019-02-05T10:31:02.701Z,78.30
2019-02-05T10:33:30.764Z,78.60
2019-02-05T10:36:01.319Z,79.70
2019-02-05T10:38:30.777Z,79.20
2019-02-05T10:40:59.042Z,80.20
2019-02-05T10:43:27.649Z,79.90
2019-02-05T10:45:56.189Z,79.40
2019-02-05T10:48:24.339Z,79.30
2019-02-05T10:50:52.528Z,78.10
2019-02-05T10:53:20.524Z,77.40
2019-02-05T10:55:48.499Z,75.80
2019-02-05T10:58:32.101Z,75.80
2019-02-05T11:01:00.010Z,76.90
2019-02-05T11:03:28.465Z,77.80
2019-02-05T11:05:56.554Z,78.60
2019-02-05T11:08:24.581Z,78.20
2019-02-05T11:10:52.679Z,78.40
2019-02-05T11:13:21.916Z,78.80
2019-02-05T11:15:50.272Z,78.40
2019-02-05T11:18:18.130Z,79.70
2019-02-05T11:20:46.580Z,80.50
2019-02-05T11:23:15.265Z,80.20
2019-02-05T11:26:36.812Z,78.70
2019-02-05T11:29:05.853Z,77.70
2019-02-05T11:31:33.414Z,79.40
2019-02-05T11:34:06.178Z,79.30
2019-02-05T11:36:43.680Z,80.20
2019-02-05T11:42:29.585Z,76.70
2019-02-05T11:45:36.880Z,78.10
2019-02-05T11:48:11.167Z,77.60
2019-02-05T11:50:53.307Z,74.70
2019-02-05T11:53:47.467Z,75.20
2019-02-05T11:56:19.341Z,75.00
2019-02-05T11:58:49.310Z,75.70
2019-02-05T12:01:23.756Z,76.30
2019-02-05T12:04:07.971Z,75.50
2019-02-05T12:06:39.288Z,76.20
2019-02-05T12:09:18.005Z,73.90
2019-02-05T12:18:10.673Z,74.40
2019-02-05T12:21:14.304Z,74.50
2019-02-05T12:23:52.305Z,75.50
2019-02-05T12:30:08.799Z,75.00
2019-02-05T12:32:52.886Z,75.10
2019-02-05T12:35:43.912Z,74.50
2019-02-05T12:38:50.817Z,73.90
2019-02-05T12:41:36.858Z,73.30
2019-02-05T12:44:07.174Z,72.80
2019-02-05T12:46:35.377Z,72.90
2019-02-05T12:49:05.888Z,73.80
2019-02-05T12:51:35.192Z,74.90
2019-02-05T12:54:06.752Z,74.60
2019-02-05T13:03:17.708Z,76.00
2019-02-05T13:05:51.046Z,74.90
2019-02-05T13:08:42.617Z,74.70
2019-02-05T13:11:31.152Z,76.30
2019-02-05T13:21:42.502Z,73.70
2019-02-05T13:24:35.006Z,73.80
2019-02-05T13:27:22.541Z,73.20
2019-02-05T13:30:10.073Z,73.30
2019-02-05T13:32:44.236Z,71.70
2019-02-05T13:35:12.537Z,70.20
2019-02-05T13:37:40.616Z,69.70
2019-02-05T13:40:13.479Z,69.50
2019-02-05T13:42:42.064Z,71.60
2019-02-05T13:45:17.017Z,69.00
2019-02-05T13:47:51.495Z,69.80
2019-02-05T13:50:37.121Z,69.50
2019-02-05T14:05:29.085Z,70.20
2019-02-05T14:09:36.231Z,67.60
2019-02-05T14:19:56.605Z,69.10
2019-02-05T14:30:30.301Z,68.60
2019-02-05T14:36:57.148Z,69.00
2019-02-05T14:48:09.767Z,66.30
2019-02-05T14:51:31.956Z,66.70
2019-02-05T14:54:03.295Z,67.30
2019-02-05T14:56:49.413Z,67.60
2019-02-05T14:59:27.136Z,66.80
2019-02-05T15:02:01.651Z,61.80
2019-02-05T15:04:38.409Z,58.80
2019-02-05T15:07:13.460Z,62.10
2019-02-05T15:10:04.620Z,64.40
2019-02-05T15:12:57.493Z,65.70
2019-02-05T15:29:24.632Z,66.70
2019-02-05T15:32:07.536Z,66.30
2019-02-05T15:34:39.590Z,66.00
2019-02-05T15:40:25.017Z,67.40
2019-02-05T16:00:26.642Z,69.70
2019-02-05T16:06:56.958Z,70.30
2019-02-05T16:09:28.396Z,70.80
2019-02-05T16:12:49.336Z,71.20
2019-02-05T16:15:25.293Z,70.90
2019-02-05T16:21:41.801Z,70.90
2019-02-05T16:24:33.465Z,70.90
2019-02-05T16:38:48.620Z,73.80
2019-02-05T16:44:19.318Z,74.30
2019-02-05T16:50:01.931Z,75.60
2019-02-05T16:52:53.049Z,76.00
2019-02-05T16:55:25.512Z,76.20
2019-02-05T16:58:12.807Z,77.00
2019-02-05T17:00:43.858Z,77.20
2019-02-05T17:03:13.909Z,77.40
2019-02-05T17:05:56.401Z,77.50
2019-02-05T17:08:29.833Z,77.90
2019-02-05T17:11:03.901Z,78.10
2019-02-05T17:13:32.363Z,78.70
2019-02-05T17:16:02.760Z,80.60
2019-02-05T17:18:31.954Z,82.30
2019-02-05T17:21:01.092Z,79.70
2019-02-05T17:23:34.399Z,79.80
2019-02-05T17:26:05.608Z,80.40
2019-02-05T17:28:35.595Z,80.80
2019-02-05T17:31:04.411Z,81.20
2019-02-05T17:33:33.800Z,81.40
2019-02-05T17:36:09.335Z,81.60
2019-02-05T17:38:40.586Z,82.00
2019-02-05T17:41:12.377Z,82.10
2019-02-05T17:43:50.590Z,82.50
2019-02-05T17:46:44.149Z,82.50
2019-02-05T17:49:17.732Z,82.60
2019-02-05T17:51:46.224Z,82.80
2019-02-05T17:54:15.159Z,83.00
2019-02-05T17:56:45.934Z,83.10
2019-02-05T17:59:16.540Z,84.30
2019-02-05T18:01:44.364Z,84.50
2019-02-05T18:04:11.918Z,86.40
2019-02-05T18:06:39.744Z,86.80
2019-02-05T18:09:08.428Z,87.30
2019-02-05T18:11:36.038Z,87.90
2019-02-05T18:14:11.472Z,88.00
2019-02-05T18:16:55.545Z,88.70
2019-02-05T18:20:20.920Z,88.40
2019-02-05T18:35:07.169Z,88.60
2019-02-05T18:38:35.750Z,88.80
2019-02-05T18:41:10.106Z,89.50
2019-02-05T18:43:47.543Z,89.60
2019-02-05T18:46:18.395Z,90.10
2019-02-05T18:48:48.946Z,90.10
2019-02-05T18:51:17.002Z,90.00
2019-02-05T18:53:45.156Z,90.00
2019-02-05T18:56:14.643Z,90.00
2019-02-05T18:58:42.940Z,90.10
2019-02-05T19:01:27.686Z,90.10
2019-02-05T19:05:02.688Z,90.10
2019-02-05T19:07:37.133Z,90.50
2019-02-05T19:10:16.774Z,90.20
2019-02-05T19:12:51.378Z,90.70
2019-02-05T19:15:35.679Z,91.00
2019-02-05T19:19:14.355Z,91.10
2019-02-05T19:21:39.607Z,91.20
2019-02-05T19:24:31.596Z,91.40
2019-02-05T19:26:59.221Z,91.50
2019-02-05T19:29:28.703Z,91.40
2019-02-05T19:31:56.383Z,91.40
2019-02-05T19:34:23.984Z,91.40
2019-02-05T19:36:51.540Z,91.40
2019-02-05T19:39:19.020Z,91.10
2019-02-05T19:41:46.565Z,91.20
2019-02-05T19:44:14.017Z,91.20
2019-02-05T19:47:06.892Z,91.20
2019-02-05T19:49:38.451Z,91.00
2019-02-05T19:52:08.860Z,90.80
2019-02-05T19:54:36.625Z,90.70
2019-02-05T19:57:04.791Z,90.70
2019-02-05T19:59:32.267Z,90.80
2019-02-05T20:02:00.206Z,91.00
2019-02-05T20:04:28.004Z,91.00
2019-02-05T20:10:45.988Z,90.90
2019-02-05T20:13:14.661Z,91.30
2019-02-05T20:16:06.596Z,91.40
2019-02-05T20:18:36.091Z,91.50
2019-02-05T20:21:03.823Z,91.70
2019-02-05T20:23:31.573Z,91.60
2019-02-05T20:25:59.173Z,92.10
2019-02-05T20:28:30.237Z,92.10
2019-02-05T20:30:58.939Z,92.10
2019-02-05T20:33:34.208Z,91.90
2019-02-05T20:36:05.069Z,91.90
2019-02-05T20:38:38.528Z,91.80
2019-02-05T20:41:10.767Z,91.80
2019-02-05T20:43:42.593Z,91.70
2019-02-05T20:46:11.469Z,91.80
2019-02-05T20:48:43.780Z,92.00
2019-02-05T20:51:11.776Z,92.10
2019-02-05T20:53:41.717Z,92.10
2019-02-05T20:56:09.689Z,92.00
2019-02-05T20:58:40.809Z,92.10
2019-02-05T21:01:09.530Z,92.10
2019-02-05T21:03:37.613Z,92.10
2019-02-05T21:06:05.951Z,91.90
2019-02-05T21:08:33.691Z,91.80
2019-02-05T21:11:04.510Z,91.90
2019-02-05T21:13:34.388Z,92.00
2019-02-05T21:16:03.808Z,92.10
2019-02-05T21:18:34.014Z,92.10
2019-02-05T21:21:02.428Z,92.00
2019-02-05T21:23:30.639Z,92.10
2019-02-05T21:26:00.308Z,92.00
2019-02-05T21:28:36.312Z,92.00
2019-02-05T21:31:04.589Z,92.00
2019-02-05T21:33:32.105Z,91.90
2019-02-05T21:35:59.627Z,91.80
2019-02-05T21:38:28.803Z,91.80
2019-02-05T21:40:57.143Z,91.80
2019-02-05T21:43:27.961Z,91.70
2019-02-05T21:46:00.805Z,91.90
2019-02-05T21:48:29.412Z,92.00
2019-02-05T21:50:57.062Z,92.00
2019-02-05T21:53:26.540Z,92.10
2019-02-05T21:55:55.059Z,92.20
2019-02-05T21:58:24.976Z,92.20
2019-02-05T22:01:02.853Z,92.30
2019-02-05T22:03:48.339Z,92.30
2019-02-05T22:06:16.906Z,92.40
2019-02-05T22:08:46.815Z,92.60
2019-02-05T22:11:18.316Z,92.70
2019-02-05T22:14:26.892Z,92.80
2019-02-05T22:16:57.413Z,92.80
2019-02-05T22:19:28.036Z,92.70
2019-02-05T22:22:15.790Z,92.80
2019-02-05T22:24:46.541Z,92.90
2019-02-05T22:27:14.864Z,92.90
2019-02-05T22:29:48.714Z,92.90
2019-02-05T22:32:19.305Z,92.80
2019-02-05T22:34:51.205Z,92.60
2019-02-05T22:37:21.024Z,92.60
2019-02-05T22:39:50.225Z,92.70
2019-02-05T22:42:20.277Z,92.70
2019-02-05T22:44:47.794Z,92.60
2019-02-05T22:47:26.929Z,92.60
2019-02-05T22:50:05.468Z,92.60
2019-02-05T22:52:34.527Z,92.50
2019-02-05T22:55:03.705Z,92.50
2019-02-05T22:57:31.910Z,92.50
2019-02-05T22:59:59.390Z,92.50
2019-02-05T23:02:32.221Z,92.40
2019-02-05T23:05:45.082Z,92.30
2019-02-05T23:08:14.123Z,92.40
2019-02-05T23:11:10.214Z,92.40
2019-02-05T23:13:39.001Z,92.50
2019-02-05T23:16:07.758Z,92.50
2019-02-05T23:18:37.035Z,92.50
2019-02-05T23:21:05.853Z,92.70
2019-02-05T23:23:33.536Z,93.00
2019-02-05T23:26:01.474Z,93.20
2019-02-05T23:28:29.027Z,93.20
2019-02-05T23:30:56.493Z,93.30
2019-02-05T23:33:23.987Z,93.40
2019-02-05T23:35:51.651Z,93.50
2019-02-05T23:38:19.116Z,93.60
2019-02-05T23:40:46.567Z,93.60
2019-02-05T23:43:14.050Z,93.60
2019-02-05T23:45:45.081Z,93.50
2019-02-05T23:48:12.768Z,93.00
2019-02-05T23:50:40.220Z,93.00
2019-02-05T23:53:08.821Z,92.90
2019-02-05T23:55:36.438Z,92.90
2019-02-05T23:58:04.628Z,93.00
